createdAt,value
2022-08-03T00:01:18.942Z,3.28
2022-08-03T00:02:52.253Z,2.80
2022-08-03T00:06:06.372Z,3.20
2022-08-03T00:07:39.131Z,2.80
2022-08-03T00:09:11.367Z,2.90
2022-08-03T00:10:43.499Z,2.90
2022-08-03T00:12:15.763Z,3.08
2022-08-03T00:13:48.328Z,3.00
2022-08-03T00:15:20.864Z,3.30
2022-08-03T00:16:52.900Z,3.13
2022-08-03T00:18:25.300Z,3.03
2022-08-03T00:19:57.418Z,3.25
2022-08-03T00:21:29.897Z,3.25
2022-08-03T00:23:02.011Z,3.23
2022-08-03T00:24:36.467Z,3.30
2022-08-03T00:26:08.773Z,3.35
2022-08-03T00:27:40.824Z,3.00
2022-08-03T00:29:13.125Z,3.20
2022-08-03T00:30:45.155Z,3.33
2022-08-03T00:32:17.387Z,3.00
2022-08-03T00:33:58.800Z,3.10
2022-08-03T00:35:50.334Z,2.88
2022-08-03T00:37:23.295Z,3.00
2022-08-03T00:39:13.150Z,3.20
2022-08-03T00:40:45.266Z,3.08
2022-08-03T00:42:17.517Z,3.25
2022-08-03T00:43:49.689Z,3.17
2022-08-03T00:45:23.871Z,3.03
2022-08-03T00:46:55.932Z,3.10
2022-08-03T00:48:33.531Z,3.05
2022-08-03T00:50:07.250Z,3.03
2022-08-03T00:53:14.680Z,2.90
2022-08-03T00:54:46.781Z,3.17
2022-08-03T00:56:18.988Z,2.90
2022-08-03T00:57:51.676Z,3.00
2022-08-03T00:59:23.744Z,3.00
2022-08-03T01:00:55.901Z,3.10
2022-08-03T01:02:29.435Z,3.10
2022-08-03T01:04:01.491Z,2.97
2022-08-03T01:05:45.837Z,3.10
2022-08-03T01:07:29.246Z,3.00
2022-08-03T01:09:26.943Z,3.05
2022-08-03T01:12:00.855Z,3.17
2022-08-03T01:14:01.559Z,3.30
2022-08-03T01:16:00.267Z,3.10
2022-08-03T01:17:54.305Z,3.13
2022-08-03T01:19:45.252Z,3.10
2022-08-03T01:21:24.220Z,3.17
2022-08-03T01:23:15.132Z,3.10
2022-08-03T01:25:02.321Z,3.08
2022-08-03T01:26:53.051Z,3.17
2022-08-03T01:29:12.523Z,3.10
2022-08-03T01:30:46.505Z,2.90
2022-08-03T01:33:17.225Z,3.00
2022-08-03T01:34:56.137Z,3.78
2022-08-03T01:36:36.156Z,2.90
2022-08-03T01:38:12.288Z,3.33
2022-08-03T01:39:45.744Z,3.08
2022-08-03T01:41:23.348Z,3.10
2022-08-03T01:42:57.037Z,3.10
2022-08-03T01:44:31.366Z,2.90
2022-08-03T01:46:04.771Z,3.20
2022-08-03T01:49:11.434Z,2.92
2022-08-03T01:50:45.615Z,3.05
2022-08-03T01:52:19.515Z,2.83
2022-08-03T01:53:52.513Z,3.08
2022-08-03T01:55:27.670Z,2.90
2022-08-03T01:57:00.037Z,2.78
2022-08-03T01:58:32.771Z,2.70
2022-08-03T02:00:06.396Z,2.80
2022-08-03T02:02:27.530Z,3.00
2022-08-03T02:03:32.601Z,2.97
2022-08-03T02:07:00.696Z,2.92
2022-08-03T02:08:35.224Z,3.03
2022-08-03T02:10:08.139Z,2.70
2022-08-03T02:11:40.899Z,2.90
2022-08-03T02:13:14.760Z,2.67
2022-08-03T02:14:47.561Z,2.88
2022-08-03T02:16:20.135Z,3.03
2022-08-03T02:17:52.352Z,2.95
2022-08-03T02:19:25.510Z,2.78
2022-08-03T02:20:57.956Z,2.92
2022-08-03T02:22:30.853Z,2.60
2022-08-03T02:24:04.725Z,2.70
2022-08-03T02:25:42.262Z,2.83
2022-08-03T02:27:43.612Z,3.05
2022-08-03T02:29:20.783Z,2.78
2022-08-03T02:31:16.479Z,2.55
2022-08-03T02:32:59.218Z,2.90
2022-08-03T02:34:34.547Z,2.72
2022-08-03T02:36:07.335Z,2.90
2022-08-03T02:37:52.394Z,3.28
2022-08-03T02:39:25.666Z,3.10
2022-08-03T02:40:58.954Z,2.90
2022-08-03T02:42:32.973Z,2.88
2022-08-03T02:44:09.316Z,2.70
2022-08-03T02:45:46.315Z,3.10
2022-08-03T02:47:21.340Z,3.03
2022-08-03T02:48:55.153Z,3.38
2022-08-03T02:50:27.917Z,2.95
2022-08-03T02:52:00.541Z,3.03
2022-08-03T02:53:34.052Z,2.90
2022-08-03T02:55:07.588Z,2.90
2022-08-03T02:56:40.233Z,2.75
2022-08-03T02:58:14.199Z,2.80
2022-08-03T02:59:46.635Z,2.65
2022-08-03T03:01:21.521Z,3.10
2022-08-03T03:02:53.963Z,3.15
2022-08-03T03:04:32.188Z,3.30
2022-08-03T03:06:05.889Z,3.13
2022-08-03T03:07:51.930Z,2.80
2022-08-03T03:09:26.132Z,3.35
2022-08-03T03:11:14.679Z,2.95
2022-08-03T03:12:47.472Z,3.50
2022-08-03T03:14:33.609Z,2.83
2022-08-03T03:16:06.961Z,3.20
2022-08-03T03:17:39.686Z,3.20
2022-08-03T03:19:13.343Z,2.72
2022-08-03T03:20:46.334Z,3.25
2022-08-03T03:22:19.125Z,3.22
2022-08-03T03:23:51.595Z,3.10
2022-08-03T03:25:24.949Z,3.20
2022-08-03T03:28:32.570Z,3.30
2022-08-03T03:30:05.079Z,2.92
2022-08-03T03:31:38.247Z,3.10
2022-08-03T03:33:10.338Z,2.97
2022-08-03T03:34:43.035Z,3.15
2022-08-03T03:36:16.498Z,2.90
2022-08-03T03:37:48.682Z,3.30
2022-08-03T03:39:20.759Z,3.30
2022-08-03T03:40:53.008Z,3.05
2022-08-03T03:42:25.859Z,3.13
2022-08-03T03:43:58.356Z,3.17
2022-08-03T03:45:31.837Z,3.67
2022-08-03T03:48:35.841Z,3.10
2022-08-03T03:50:08.664Z,3.20
2022-08-03T03:51:40.745Z,3.33
2022-08-03T03:53:15.909Z,3.17
2022-08-03T03:54:48.256Z,3.65
2022-08-03T03:56:20.362Z,3.15
2022-08-03T03:57:52.406Z,3.10
2022-08-03T03:59:24.421Z,3.55
2022-08-03T04:00:56.618Z,3.35
2022-08-03T04:02:28.818Z,3.10
2022-08-03T04:04:20.863Z,3.40
2022-08-03T04:06:11.324Z,3.45
2022-08-03T04:08:22.262Z,3.50
2022-08-03T04:10:14.735Z,3.30
2022-08-03T04:11:52.902Z,3.33
2022-08-03T04:13:25.868Z,3.20
2022-08-03T04:14:59.627Z,3.30
2022-08-03T04:16:34.339Z,3.33
2022-08-03T04:18:07.955Z,3.20
2022-08-03T04:19:46.695Z,3.15
2022-08-03T04:21:20.303Z,3.33
2022-08-03T04:22:53.849Z,3.40
2022-08-03T04:24:29.629Z,3.38
2022-08-03T04:26:03.981Z,3.05
2022-08-03T04:27:38.430Z,3.70
2022-08-03T04:29:11.844Z,3.42
2022-08-03T04:32:21.566Z,3.60
2022-08-03T04:33:54.260Z,3.30
2022-08-03T04:35:58.495Z,3.63
2022-08-03T04:37:39.082Z,3.40
2022-08-03T04:39:19.150Z,3.38
2022-08-03T04:40:52.431Z,3.25
2022-08-03T04:42:25.269Z,3.78
2022-08-03T04:43:59.118Z,3.67
2022-08-03T04:45:32.035Z,3.33
2022-08-03T04:47:04.257Z,3.40
2022-08-03T04:48:36.395Z,3.47
2022-08-03T04:50:12.945Z,3.30
2022-08-03T04:51:46.866Z,3.10
2022-08-03T04:53:19.569Z,3.83
2022-08-03T04:54:53.200Z,3.53
2022-08-03T04:56:25.445Z,3.60
2022-08-03T04:57:58.515Z,3.50
2022-08-03T04:59:30.637Z,3.33
2022-08-03T05:01:03.668Z,3.40
2022-08-03T05:02:35.770Z,3.35
2022-08-03T05:04:08.130Z,3.90
2022-08-03T05:05:50.587Z,3.78
2022-08-03T05:07:24.870Z,3.28
2022-08-03T05:08:58.111Z,3.28
2022-08-03T05:10:30.350Z,3.67
2022-08-03T05:12:02.765Z,3.53
2022-08-03T05:13:34.864Z,3.60
2022-08-03T05:15:07.872Z,3.58
2022-08-03T05:16:39.908Z,3.40
2022-08-03T05:18:14.265Z,3.65
2022-08-03T05:19:46.596Z,3.40
2022-08-03T05:21:18.714Z,2.95
2022-08-03T05:22:50.776Z,3.55
2022-08-03T05:24:22.933Z,3.22
2022-08-03T05:25:55.058Z,3.80
2022-08-03T05:27:27.251Z,3.33
2022-08-03T05:28:59.302Z,3.00
2022-08-03T05:30:34.089Z,3.30
2022-08-03T05:32:08.435Z,3.40
2022-08-03T05:33:41.424Z,3.20
2022-08-03T05:36:03.609Z,3.40
2022-08-03T05:37:05.853Z,3.50
2022-08-03T05:38:37.998Z,3.20
2022-08-03T05:40:10.670Z,3.50
2022-08-03T05:41:42.817Z,3.47
2022-08-03T05:43:14.959Z,3.25
2022-08-03T05:44:47.008Z,3.33
2022-08-03T05:46:19.117Z,3.40
2022-08-03T05:47:51.738Z,3.22
2022-08-03T05:49:23.883Z,3.25
2022-08-03T05:50:56.030Z,3.38
2022-08-03T05:52:28.488Z,3.45
2022-08-03T05:54:00.831Z,3.35
2022-08-03T05:55:32.922Z,3.08
2022-08-03T05:57:05.149Z,3.30
2022-08-03T05:58:37.283Z,3.20
2022-08-03T06:00:11.651Z,3.10
2022-08-03T06:01:44.857Z,3.38
2022-08-03T06:03:17.352Z,3.35
2022-08-03T06:04:53.631Z,3.10
2022-08-03T06:06:29.306Z,3.38
2022-08-03T06:08:04.405Z,3.40
2022-08-03T06:10:33.386Z,2.95
2022-08-03T06:11:28.517Z,3.03
2022-08-03T06:13:01.029Z,3.40
2022-08-03T06:14:33.216Z,3.13
2022-08-03T06:16:06.197Z,3.30
2022-08-03T06:17:45.957Z,3.05
2022-08-03T06:19:18.367Z,3.05
2022-08-03T06:20:51.249Z,3.10
2022-08-03T06:22:24.462Z,2.95
2022-08-03T06:23:59.309Z,3.22
2022-08-03T06:25:34.845Z,3.30
2022-08-03T06:27:07.048Z,3.10
2022-08-03T06:28:52.759Z,3.17
2022-08-03T06:30:26.329Z,3.47
2022-08-03T06:31:58.679Z,3.60
2022-08-03T06:34:30.932Z,3.65
2022-08-03T06:35:23.488Z,4.15
2022-08-03T06:37:01.684Z,3.92
2022-08-03T06:38:34.277Z,3.70
2022-08-03T06:40:07.157Z,3.35
2022-08-03T06:41:44.704Z,3.80
2022-08-03T06:43:17.330Z,4.35
2022-08-03T06:44:49.613Z,3.70
2022-08-03T06:46:22.606Z,3.60
2022-08-03T06:49:33.356Z,3.20
2022-08-03T06:51:06.822Z,3.35
2022-08-03T06:52:39.348Z,3.08
2022-08-03T06:54:12.672Z,3.17
2022-08-03T06:57:19.130Z,2.95
2022-08-03T06:58:51.992Z,3.20
2022-08-03T07:00:24.248Z,2.78
2022-08-03T07:01:59.608Z,3.10
2022-08-03T07:03:31.886Z,3.55
2022-08-03T07:05:05.971Z,2.75
2022-08-03T07:06:39.398Z,3.97
2022-08-03T07:08:11.593Z,4.07
2022-08-03T07:09:57.138Z,3.42
2022-08-03T07:11:30.451Z,3.60
2022-08-03T07:13:02.586Z,3.42
2022-08-03T07:14:34.686Z,3.50
2022-08-03T07:16:07.070Z,6.28
2022-08-03T07:17:39.573Z,3.70
2022-08-03T07:19:12.683Z,3.40
2022-08-03T07:20:45.885Z,3.30
2022-08-03T07:23:50.498Z,4.70
2022-08-03T07:25:22.849Z,3.50
2022-08-03T07:26:55.396Z,3.50
2022-08-03T07:28:28.444Z,2.85
2022-08-03T07:30:00.815Z,2.83
2022-08-03T07:31:34.244Z,3.60
2022-08-03T07:33:06.835Z,3.50
2022-08-03T07:34:38.978Z,2.78
2022-08-03T07:36:11.163Z,2.50
2022-08-03T07:37:43.335Z,3.20
2022-08-03T07:39:26.714Z,2.40
2022-08-03T07:40:58.910Z,2.55
2022-08-03T07:42:31.810Z,2.60
2022-08-03T07:44:04.292Z,3.03
2022-08-03T07:45:36.649Z,2.40
2022-08-03T07:47:09.084Z,2.50
2022-08-03T07:48:42.169Z,2.35
2022-08-03T07:50:18.854Z,2.55
2022-08-03T07:52:11.368Z,2.30
2022-08-03T07:53:47.419Z,3.08
2022-08-03T07:55:22.052Z,2.25
2022-08-03T07:56:54.297Z,2.42
2022-08-03T07:58:26.739Z,2.70
2022-08-03T08:00:02.392Z,2.60
2022-08-03T08:01:37.100Z,2.38
2022-08-03T08:03:09.492Z,2.40
2022-08-03T08:04:42.649Z,2.97
2022-08-03T08:07:50.910Z,2.70
2022-08-03T08:09:23.971Z,2.60
2022-08-03T08:10:58.238Z,2.40
2022-08-03T08:12:32.197Z,2.65
2022-08-03T08:14:05.932Z,2.60
2022-08-03T08:15:42.778Z,2.25
2022-08-03T08:17:17.171Z,2.55
2022-08-03T08:18:49.413Z,2.60
2022-08-03T08:20:30.489Z,2.60
2022-08-03T08:22:03.967Z,3.00
2022-08-03T08:23:43.544Z,2.25
2022-08-03T08:25:19.449Z,2.47
2022-08-03T08:26:51.888Z,2.50
2022-08-03T08:28:32.843Z,2.55
2022-08-03T08:30:11.544Z,2.42
2022-08-03T08:31:44.851Z,1.98
2022-08-03T08:33:23.380Z,2.50
2022-08-03T08:34:57.369Z,2.25
2022-08-03T08:36:29.415Z,2.35
2022-08-03T08:38:05.603Z,2.05
2022-08-03T08:39:38.216Z,2.33
2022-08-03T08:41:12.124Z,2.30
2022-08-03T08:42:57.879Z,2.28
2022-08-03T08:44:30.767Z,2.20
2022-08-03T08:46:03.649Z,2.47
2022-08-03T08:47:51.131Z,2.78
2022-08-03T08:51:02.845Z,2.20
2022-08-03T08:52:36.047Z,2.30
2022-08-03T08:54:08.931Z,2.35
2022-08-03T08:55:59.305Z,2.08
2022-08-03T08:57:43.145Z,2.38
2022-08-03T08:59:15.894Z,2.30
2022-08-03T09:00:48.871Z,2.22
2022-08-03T09:02:21.097Z,2.30
2022-08-03T09:03:54.618Z,2.30
2022-08-03T09:05:55.842Z,2.28
2022-08-03T09:07:30.113Z,2.40
2022-08-03T09:09:02.582Z,2.30
2022-08-03T09:10:35.302Z,2.10
2022-08-03T09:12:38.789Z,2.58
2022-08-03T09:14:01.627Z,2.53
2022-08-03T09:15:34.098Z,2.20
2022-08-03T09:17:06.500Z,1.90
2022-08-03T09:18:39.434Z,2.30
2022-08-03T09:20:12.045Z,2.40
2022-08-03T09:21:44.564Z,2.17
2022-08-03T09:23:51.783Z,2.13
2022-08-03T09:25:24.425Z,2.30
2022-08-03T09:26:57.046Z,2.50
2022-08-03T09:28:59.388Z,2.30
2022-08-03T09:30:34.723Z,2.22
2022-08-03T09:32:07.538Z,2.40
2022-08-03T09:33:49.421Z,2.25
2022-08-03T09:35:51.779Z,2.10
2022-08-03T09:37:21.600Z,2.30
2022-08-03T09:39:19.267Z,2.20
2022-08-03T09:40:54.843Z,2.20
2022-08-03T09:42:31.611Z,2.30
2022-08-03T09:44:04.096Z,2.28
2022-08-03T09:45:37.534Z,2.13
2022-08-03T09:47:11.202Z,2.83
2022-08-03T09:48:43.690Z,2.33
2022-08-03T09:52:31.804Z,2.10
2022-08-03T09:53:58.532Z,2.17
2022-08-03T09:56:33.926Z,2.40
2022-08-03T09:57:26.199Z,2.17
2022-08-03T09:58:58.454Z,2.00
2022-08-03T10:00:30.884Z,2.50
2022-08-03T10:02:03.372Z,2.00
2022-08-03T10:04:02.754Z,2.30
2022-08-03T10:05:34.236Z,2.17
2022-08-03T10:07:09.679Z,2.40
2022-08-03T10:08:41.931Z,2.40
2022-08-03T10:10:29.322Z,2.20
2022-08-03T10:12:24.843Z,2.60
2022-08-03T10:14:14.068Z,2.40
2022-08-03T10:16:22.644Z,2.22
2022-08-03T10:17:46.074Z,2.40
2022-08-03T10:19:18.801Z,2.30
2022-08-03T10:20:57.156Z,2.08
2022-08-03T10:22:34.645Z,2.40
2022-08-03T10:24:09.841Z,2.13
2022-08-03T10:25:45.082Z,2.30
2022-08-03T10:27:20.835Z,2.20
2022-08-03T10:28:54.965Z,2.10
2022-08-03T10:30:28.713Z,2.58
2022-08-03T10:32:06.201Z,2.35
2022-08-03T10:33:50.131Z,2.47
2022-08-03T10:35:24.852Z,2.42
2022-08-03T10:36:59.437Z,2.42
2022-08-03T10:38:38.602Z,2.50
2022-08-03T10:40:33.248Z,2.20
2022-08-03T10:42:13.513Z,2.50
2022-08-03T10:44:19.559Z,2.28
2022-08-03T10:45:52.716Z,2.55
2022-08-03T10:47:39.700Z,2.30
2022-08-03T10:49:33.711Z,2.30
2022-08-03T10:51:08.080Z,2.50
2022-08-03T10:53:03.994Z,2.47
2022-08-03T10:55:03.499Z,2.58
2022-08-03T10:57:13.642Z,2.42
2022-08-03T10:58:53.419Z,2.42
2022-08-03T11:00:50.369Z,2.33
2022-08-03T11:02:22.716Z,2.30
2022-08-03T11:03:55.127Z,2.35
2022-08-03T11:05:32.229Z,2.25
2022-08-03T11:07:23.367Z,2.22
2022-08-03T11:09:10.943Z,2.40
2022-08-03T11:10:43.517Z,2.15
2022-08-03T11:12:30.241Z,2.42
2022-08-03T11:14:19.437Z,2.30
2022-08-03T11:15:54.316Z,2.70
2022-08-03T11:17:45.785Z,2.42
2022-08-03T11:19:20.385Z,2.17
2022-08-03T11:20:58.560Z,2.28
2022-08-03T11:22:49.356Z,2.35
2022-08-03T11:24:44.315Z,2.30
2022-08-03T11:26:22.918Z,2.20
2022-08-03T11:28:28.852Z,2.28
2022-08-03T11:30:19.866Z,2.17
2022-08-03T11:31:52.114Z,2.22
2022-08-03T11:33:31.396Z,2.05
2022-08-03T11:35:24.510Z,2.30
2022-08-03T11:37:20.991Z,2.25
2022-08-03T11:39:22.665Z,2.50
2022-08-03T11:40:55.469Z,2.20
2022-08-03T11:42:29.545Z,2.50
2022-08-03T11:44:01.950Z,2.50
2022-08-03T11:45:34.588Z,2.50
2022-08-03T11:47:07.152Z,2.08
2022-08-03T11:48:41.465Z,2.03
2022-08-03T11:50:13.949Z,2.00
2022-08-03T11:51:46.346Z,1.95
2022-08-03T11:53:19.705Z,2.25
2022-08-03T11:54:56.695Z,2.33
2022-08-03T11:56:40.373Z,2.10
2022-08-03T11:59:02.634Z,2.10
2022-08-03T12:00:23.339Z,2.42
2022-08-03T12:02:10.027Z,2.50
2022-08-03T12:03:42.503Z,2.00
2022-08-03T12:05:14.861Z,2.05
2022-08-03T12:07:05.090Z,2.00
2022-08-03T12:08:37.295Z,2.15
2022-08-03T12:10:13.568Z,2.20
2022-08-03T12:11:59.396Z,2.35
2022-08-03T12:14:10.468Z,2.40
2022-08-03T12:15:37.489Z,2.38
2022-08-03T12:17:09.899Z,2.22
2022-08-03T12:18:42.293Z,2.00
2022-08-03T12:20:31.554Z,2.10
2022-08-03T12:22:07.692Z,2.10
2022-08-03T12:23:40.178Z,1.90
2022-08-03T12:25:38.835Z,2.17
2022-08-03T12:27:12.492Z,2.30
2022-08-03T12:28:49.888Z,2.20
2022-08-03T12:30:24.448Z,2.50
2022-08-03T12:31:57.250Z,2.22
2022-08-03T12:33:29.644Z,2.42
2022-08-03T12:35:03.685Z,2.08
2022-08-03T12:36:39.647Z,2.28
2022-08-03T12:38:13.436Z,2.20
2022-08-03T12:40:02.807Z,3.22
2022-08-03T12:41:39.884Z,2.30
2022-08-03T12:43:13.886Z,2.25
2022-08-03T12:44:50.525Z,2.20
2022-08-03T12:46:36.643Z,2.23
2022-08-03T12:48:11.590Z,2.30
2022-08-03T12:49:48.308Z,2.30
2022-08-03T12:51:20.782Z,2.03
2022-08-03T12:52:53.181Z,2.28
2022-08-03T12:54:29.820Z,2.08
2022-08-03T12:56:05.712Z,2.10
2022-08-03T12:57:42.541Z,2.20
2022-08-03T12:59:40.646Z,2.10
2022-08-03T13:01:13.975Z,2.03
2022-08-03T13:02:46.599Z,2.20
2022-08-03T13:04:41.328Z,2.40
2022-08-03T13:06:18.525Z,2.20
2022-08-03T13:07:50.959Z,1.98
2022-08-03T13:09:25.808Z,2.10
2022-08-03T13:10:58.156Z,2.03
2022-08-03T13:12:31.120Z,2.35
2022-08-03T13:15:38.651Z,2.15
2022-08-03T13:17:20.909Z,2.05
2022-08-03T13:18:54.639Z,2.00
2022-08-03T13:20:26.916Z,2.10
2022-08-03T13:22:04.042Z,2.08
2022-08-03T13:23:37.038Z,2.00
2022-08-03T13:25:09.918Z,2.08
2022-08-03T13:26:42.269Z,2.13
2022-08-03T13:28:14.923Z,1.90
2022-08-03T13:29:47.592Z,1.85
2022-08-03T13:31:19.820Z,2.33
2022-08-03T13:32:52.347Z,2.00
2022-08-03T13:34:24.592Z,2.00
2022-08-03T13:35:56.860Z,2.03
2022-08-03T13:37:30.102Z,2.10
2022-08-03T13:39:02.503Z,2.10
2022-08-03T13:42:14.150Z,2.03
2022-08-03T13:43:46.664Z,2.20
2022-08-03T13:45:19.210Z,2.08
2022-08-03T13:46:51.775Z,2.05
2022-08-03T13:48:36.966Z,2.50
2022-08-03T13:50:10.328Z,2.00
2022-08-03T13:51:42.923Z,2.00
2022-08-03T13:53:15.448Z,2.20
2022-08-03T13:54:47.897Z,2.17
2022-08-03T13:56:21.106Z,2.15
2022-08-03T13:58:04.434Z,2.00
2022-08-03T13:59:40.505Z,1.92
2022-08-03T14:01:13.067Z,2.13
2022-08-03T14:02:45.512Z,4.25
2022-08-03T14:04:21.866Z,3.47
2022-08-03T14:05:54.660Z,2.03
2022-08-03T14:07:26.902Z,2.10
2022-08-03T14:09:00.781Z,1.92
2022-08-03T14:10:43.866Z,1.90
2022-08-03T14:12:16.006Z,2.25
2022-08-03T14:13:48.427Z,2.30
2022-08-03T14:15:21.006Z,2.30
2022-08-03T14:16:53.168Z,2.20
2022-08-03T14:18:33.397Z,3.35
2022-08-03T14:20:36.525Z,2.88
2022-08-03T14:22:06.125Z,2.00
2022-08-03T14:23:39.861Z,2.10
2022-08-03T14:28:25.861Z,2.33
2022-08-03T14:30:00.406Z,2.20
2022-08-03T14:32:12.025Z,2.20
2022-08-03T14:33:25.307Z,2.05
2022-08-03T14:34:57.778Z,2.17
2022-08-03T14:36:30.260Z,2.08
2022-08-03T14:38:02.655Z,2.17
2022-08-03T14:41:28.101Z,2.15
2022-08-03T14:43:00.465Z,2.22
2022-08-03T14:44:32.775Z,2.10
2022-08-03T14:46:05.106Z,2.20
2022-08-03T14:50:29.394Z,2.10
2022-08-03T14:50:38.634Z,1.95
2022-08-03T14:51:22.489Z,1.83
2022-08-03T14:52:55.048Z,2.05
2022-08-03T14:54:27.368Z,2.00
2022-08-03T14:55:59.807Z,2.20
2022-08-03T14:57:32.167Z,2.22
2022-08-03T14:59:04.381Z,2.00
2022-08-03T15:00:40.208Z,2.13
2022-08-03T15:02:21.283Z,2.88
2022-08-03T15:05:28.140Z,2.25
2022-08-03T15:07:00.453Z,2.00
2022-08-03T15:08:32.652Z,2.03
2022-08-03T15:10:05.569Z,1.80
2022-08-03T15:13:09.792Z,2.13
2022-08-03T15:14:42.292Z,1.95
2022-08-03T15:16:14.689Z,2.63
2022-08-03T15:18:00.093Z,2.00
2022-08-03T15:20:02.035Z,1.88
2022-08-03T15:21:46.945Z,1.83
2022-08-03T15:23:18.678Z,2.10
2022-08-03T15:24:51.014Z,1.77
2022-08-03T15:26:32.759Z,2.20
2022-08-03T15:28:07.657Z,1.80
2022-08-03T15:30:08.786Z,2.08
2022-08-03T15:31:32.290Z,2.00
2022-08-03T15:33:05.089Z,2.08
2022-08-03T15:34:37.285Z,3.10
2022-08-03T15:36:09.735Z,1.75
2022-08-03T15:37:42.130Z,2.70
2022-08-03T15:39:14.595Z,5.15
2022-08-03T15:40:46.932Z,4.30
2022-08-03T15:42:19.172Z,2.28
2022-08-03T15:43:53.825Z,2.10
2022-08-03T15:45:26.060Z,2.00
2022-08-03T15:47:07.514Z,1.90
2022-08-03T15:48:43.154Z,1.90
2022-08-03T15:50:15.312Z,1.92
2022-08-03T15:51:48.417Z,1.95
2022-08-03T15:53:23.559Z,1.77
2022-08-03T15:54:55.933Z,2.00
2022-08-03T15:56:28.157Z,2.00
2022-08-03T15:59:04.410Z,1.90
2022-08-03T15:59:52.732Z,1.95
2022-08-03T16:01:25.790Z,2.03
2022-08-03T16:04:30.366Z,2.00
2022-08-03T16:06:03.993Z,2.00
2022-08-03T16:07:58.566Z,1.90
2022-08-03T16:09:43.200Z,1.83
2022-08-03T16:11:16.571Z,2.05
2022-08-03T16:12:49.132Z,1.95
2022-08-03T16:14:34.730Z,1.80
2022-08-03T16:16:10.301Z,2.20
2022-08-03T16:17:47.488Z,2.00
2022-08-03T16:19:19.955Z,2.10
2022-08-03T16:20:52.383Z,2.08
2022-08-03T16:22:25.092Z,2.13
2022-08-03T16:23:58.355Z,1.85
2022-08-03T16:25:30.702Z,2.10
2022-08-03T16:27:03.170Z,2.00
2022-08-03T16:28:38.532Z,1.80
2022-08-03T16:30:12.606Z,1.88
2022-08-03T16:31:50.869Z,2.10
2022-08-03T16:33:23.890Z,1.75
2022-08-03T16:34:56.047Z,1.90
2022-08-03T16:36:28.461Z,1.93
2022-08-03T16:38:10.408Z,1.67
2022-08-03T16:39:44.053Z,2.00
2022-08-03T16:41:16.532Z,2.13
2022-08-03T16:42:48.932Z,1.98
2022-08-03T16:44:21.346Z,2.00
2022-08-03T16:45:53.814Z,1.90
2022-08-03T16:47:26.207Z,2.10
2022-08-03T16:48:58.767Z,2.00
2022-08-03T16:50:30.909Z,2.30
2022-08-03T16:52:03.549Z,2.03
2022-08-03T16:54:05.377Z,1.98
2022-08-03T16:55:43.509Z,1.70
2022-08-03T16:57:56.560Z,2.10
2022-08-03T16:59:15.994Z,2.20
2022-08-03T17:00:48.343Z,2.07
2022-08-03T17:02:26.420Z,2.00
2022-08-03T17:04:03.328Z,1.95
2022-08-03T17:05:47.070Z,1.92
2022-08-03T17:07:22.043Z,2.20
2022-08-03T17:08:55.390Z,1.90
2022-08-03T17:10:28.018Z,2.08
2022-08-03T17:12:00.639Z,2.08
2022-08-03T17:13:39.129Z,1.88
2022-08-03T17:15:12.241Z,2.00
2022-08-03T17:16:52.802Z,2.05
2022-08-03T17:18:30.217Z,1.92
2022-08-03T17:20:09.696Z,2.08
2022-08-03T17:21:55.730Z,2.25
2022-08-03T17:23:40.932Z,2.00
2022-08-03T17:25:22.096Z,2.30
2022-08-03T17:28:41.690Z,2.00
2022-08-03T17:29:12.873Z,1.92
2022-08-03T17:31:03.692Z,1.77
2022-08-03T17:32:57.471Z,2.00
2022-08-03T17:34:30.515Z,2.10
2022-08-03T17:39:55.573Z,2.30
2022-08-03T17:41:23.956Z,2.30
2022-08-03T17:42:57.722Z,2.58
2022-08-03T17:44:38.713Z,2.30
2022-08-03T17:46:16.854Z,2.15
2022-08-03T17:49:44.340Z,2.40
2022-08-03T17:53:07.414Z,2.80
2022-08-03T17:55:56.878Z,2.55
2022-08-03T17:57:22.497Z,2.90
2022-08-03T17:59:10.877Z,3.00
2022-08-03T18:01:03.101Z,2.63
2022-08-03T18:03:21.155Z,2.40
2022-08-03T18:05:16.685Z,2.60
2022-08-03T18:06:56.237Z,2.58
2022-08-03T18:08:30.417Z,2.53
2022-08-03T18:10:11.515Z,2.60
2022-08-03T18:11:46.706Z,2.95
2022-08-03T18:13:25.249Z,2.50
2022-08-03T18:15:07.820Z,3.20
2022-08-03T18:17:00.151Z,2.47
2022-08-03T18:18:36.414Z,2.53
2022-08-03T18:20:32.712Z,2.47
2022-08-03T18:22:04.437Z,2.80
2022-08-03T18:23:38.686Z,2.50
2022-08-03T18:25:10.997Z,2.90
2022-08-03T18:26:48.537Z,2.47
2022-08-03T18:28:23.273Z,2.42
2022-08-03T18:29:56.394Z,2.50
2022-08-03T18:32:00.493Z,2.72
2022-08-03T18:34:16.481Z,2.65
2022-08-03T18:35:20.473Z,2.58
2022-08-03T18:36:57.885Z,2.45
2022-08-03T18:38:31.113Z,2.40
2022-08-03T18:40:04.726Z,2.42
2022-08-03T18:41:42.097Z,2.50
2022-08-03T18:43:21.407Z,2.75
2022-08-03T18:45:54.987Z,2.70
2022-08-03T18:47:53.157Z,2.90
2022-08-03T18:49:47.011Z,2.50
2022-08-03T18:51:28.797Z,2.40
2022-08-03T18:54:03.609Z,2.58
2022-08-03T18:55:33.422Z,2.83
2022-08-03T18:57:09.154Z,2.60
2022-08-03T18:59:09.928Z,2.58
2022-08-03T19:01:58.558Z,2.70
2022-08-03T19:03:20.294Z,2.55
2022-08-03T19:04:54.705Z,2.53
2022-08-03T19:06:31.726Z,2.70
2022-08-03T19:08:20.833Z,2.70
2022-08-03T19:10:06.975Z,2.60
2022-08-03T19:12:14.333Z,2.72
2022-08-03T19:13:50.173Z,2.50
2022-08-03T19:15:36.675Z,2.70
2022-08-03T19:17:14.690Z,2.63
2022-08-03T19:18:55.246Z,2.80
2022-08-03T19:20:31.126Z,2.67
2022-08-03T19:22:05.248Z,2.55
2022-08-03T19:23:45.491Z,2.47
2022-08-03T19:25:18.260Z,2.60
2022-08-03T19:28:43.334Z,2.70
2022-08-03T19:30:35.434Z,3.00
2022-08-03T19:32:15.632Z,2.60
2022-08-03T19:33:57.272Z,2.80
2022-08-03T19:35:55.472Z,2.95
2022-08-03T19:37:23.546Z,3.00
2022-08-03T19:38:57.405Z,3.35
2022-08-03T19:40:32.236Z,2.63
2022-08-03T19:42:20.027Z,2.80
2022-08-03T21:13:02.203Z,2.63
2022-08-03T21:13:04.565Z,2.53
